Time;durP1;ratioP1;P1;durP2;ratioP2;P2;SDS_P1;SDS_P2;PMS_P1;PMS_P2;Temp;Humidity;BMP_temperature;BMP_pressure;BME280_temperature;BME280_humidity;BME280_pressure;Samples;Min_cycle;Max_cycle;Signal;HPM_P1;HPM_P2
2023/03/16 00:00:52;;;;;;;7.53;2.50;;;;;;;;;;5067489;28;20040;-84
2023/03/16 00:03:36;;;;;;;8.83;2.50;;;;;;;;;;5051881;28;20116;-86
2023/03/16 00:06:21;;;;;;;11.03;3.07;;;;;;;;;;5072435;28;20107;-86
2023/03/16 00:09:06;;;;;;;5.60;3.30;;;;;;;;;;5071496;28;20120;-86
2023/03/16 00:11:50;;;;;;;5.50;2.17;;;;;;;;;;5064307;28;20047;-84
2023/03/16 00:14:35;;;;;;;9.10;2.77;;;;;;;;;;5073132;28;20039;-84
2023/03/16 00:17:20;;;;;;;8.57;3.10;;;;;;;;;;5072743;28;20059;-83
2023/03/16 00:20:05;;;;;;;11.30;2.90;;;3.80;99.90;;;;;;5072817;28;20079;-84
2023/03/16 00:22:50;;;;;;;7.57;2.60;;;;;;;;;;5071947;28;20194;-84
2023/03/16 00:25:35;;;;;;;4.53;2.30;;;;;;;;;;5063873;28;20086;-84
2023/03/16 00:28:20;;;;;;;7.87;2.50;;;;;;;;;;5045197;28;20040;-83
2023/03/16 00:31:07;;;;;;;9.03;2.30;;;3.90;99.90;;;;;;5071130;28;20405;-84
2023/03/16 00:33:52;;;;;;;9.20;2.53;;;;;;;;;;5071984;28;20093;-84
2023/03/16 00:36:37;;;;;;;10.70;3.07;;;;;;;;;;5072713;28;20476;-84
2023/03/16 00:39:21;;;;;;;6.23;2.30;;;;;;;;;;5065455;28;20051;-84
2023/03/16 00:42:08;;;;;;;5.27;2.27;;;;;;;;;;5071271;28;20399;-83
2023/03/16 00:44:57;;;;;;;6.27;2.30;;;4.00;99.90;;;;;;5072607;28;20031;-83
2023/03/16 00:47:42;;;;;;;8.77;2.53;;;;;;;;;;5071620;28;20044;-83
2023/03/16 00:50:26;;;;;;;7.30;2.50;;;;;;;;;;5072471;28;20043;-83
2023/03/16 00:53:11;;;;;;;4.87;2.57;;;;;;;;;;5059571;28;20052;-83
2023/03/16 00:55:55;;;;;;;5.83;2.33;;;;;;;;;;5071466;28;20063;-84
2023/03/16 00:58:41;;;;;;;8.63;3.80;;;4.00;99.90;;;;;;5058001;28;20043;-84
2023/03/16 01:01:26;;;;;;;6.57;2.53;;;;;;;;;;5071082;28;20051;-83
2023/03/16 01:04:10;;;;;;;5.73;2.53;;;;;;;;;;5071658;28;20432;-84
2023/03/16 01:06:55;;;;;;;5.50;2.60;;;;;;;;;;5072467;28;20444;-84
2023/03/16 01:09:40;;;;;;;11.13;3.67;;;4.00;99.90;;;;;;5071409;28;20065;-84
2023/03/16 01:12:24;;;;;;;6.43;2.67;;;;;;;;;;5071556;28;20111;-84
2023/03/16 01:15:09;;;;;;;5.50;2.63;;;4.00;99.90;;;;;;5065549;28;20043;-83
2023/03/16 01:17:54;;;;;;;8.10;4.07;;;;;;;;;;5071064;28;20082;-84
2023/03/16 01:20:39;;;;;;;6.70;2.80;;;;;;;;;;5063107;28;20116;-83
2023/03/16 01:23:23;;;;;;;6.20;2.70;;;;;;;;;;5046921;28;20538;-83
2023/03/16 01:26:08;;;;;;;9.13;4.17;;;;;;;;;;5071355;28;20047;-85
2023/03/16 01:28:53;;;;;;;10.40;3.20;;;;;;;;;;5071222;28;20039;-83
2023/03/16 01:31:38;;;;;;;8.27;3.10;;;4.00;99.90;;;;;;5070971;28;20040;-84
2023/03/16 01:34:22;;;;;;;8.77;3.20;;;;;;;;;;5071348;28;20480;-83
2023/03/16 01:37:08;;;;;;;9.23;3.27;;;;;;;;;;5059922;28;20035;-85
2023/03/16 01:39:52;;;;;;;7.60;3.23;;;;;;;;;;5071755;28;20142;-83
2023/03/16 01:42:48;;;;;;;8.47;3.50;;;4.00;99.90;;;;;;5072138;28;20097;-83
2023/03/16 01:46:17;;;;;;;8.40;3.37;;;3.90;99.90;;;;;;5047912;28;20081;-83
2023/03/16 01:49:22;;;;;;;7.40;3.37;;;4.00;99.90;;;;;;5069798;28;20492;-84
2023/03/16 01:52:20;;;;;;;12.17;4.10;;;4.00;99.90;;;;;;5074183;28;20124;-84
2023/03/16 01:55:14;;;;;;;8.53;3.73;;;3.90;99.90;;;;;;5075921;28;20035;-84
2023/03/16 01:57:58;;;;;;;11.05;4.38;;;;;;;;;;5066080;28;20090;-84
2023/03/16 02:00:44;;;;;;;9.97;3.77;;;;;;;;;;5100720;28;20039;-84
2023/03/16 02:03:33;;;;;;;12.87;5.77;;;;;;;;;;5066644;28;20063;-84
2023/03/16 02:06:19;;;;;;;8.03;3.70;;;3.80;99.90;;;;;;5050096;28;20086;-84
2023/03/16 02:09:05;;;;;;;16.03;4.03;;;3.80;99.90;;;;;;5074436;28;20496;-83
2023/03/16 02:11:50;;;;;;;8.40;3.70;;;;;;;;;;5074585;28;20511;-83
2023/03/16 02:14:34;;;;;;;8.00;3.90;;;;;;;;;;5073899;28;20075;-84
2023/03/16 02:17:22;;;;;;;10.50;3.60;;;3.80;99.90;;;;;;5060470;28;20118;-84
2023/03/16 02:20:27;;;;;;;7.03;3.67;;;6.10;99.90;;;;;;5075617;28;20439;-83
2023/03/16 02:23:19;;;;;;;7.27;3.37;;;3.80;99.90;;;;;;5075398;28;20039;-85
2023/03/16 02:26:34;;;;;;;8.20;3.30;;;3.80;99.90;;;;;;5075330;28;20040;-84
2023/03/16 02:29:18;;;;;;;10.40;4.15;;;;;;;;;;5074766;28;20098;-84
2023/03/16 02:32:04;;;;;;;11.97;4.30;;;3.80;99.90;;;;;;5069615;28;20124;-84
2023/03/16 02:34:49;;;;;;;6.17;3.27;;;;;;;;;;5074209;28;20031;-83
2023/03/16 02:37:34;;;;;;;13.30;4.27;;;;;;;;;;5074558;28;20047;-84
2023/03/16 02:40:28;;;;;;;10.60;3.80;;;3.70;99.90;;;;;;5074459;28;20090;-84
2023/03/16 02:43:17;;;;;;;7.97;3.72;;;3.80;99.90;;;;;;5067375;28;20103;-84
2023/03/16 02:46:03;;;;;;;7.30;3.20;;;;;;;;;;5070461;28;20064;-83
2023/03/16 02:49:01;;;;;;;9.80;3.63;;;3.90;99.90;;;;;;5044768;28;20404;-83
2023/03/16 02:51:46;;;;;;;9.50;3.97;;;3.80;99.90;;;;;;5072487;28;20495;-83
2023/03/16 02:54:31;;;;;;;8.73;3.60;;;;;;;;;;5074374;28;20549;-83
2023/03/16 02:57:15;;;;;;;8.20;3.23;;;;;;;;;;5053290;28;20174;-83
2023/03/16 03:00:00;;;;;;;7.03;3.53;;;;;;;;;;5054773;28;20040;-84
2023/03/16 03:02:45;;;;;;;9.03;3.23;;;;;;;;;;5053782;28;20452;-83
2023/03/16 03:05:29;;;;;;;11.83;3.30;;;;;;;;;;5047472;28;20095;-83
2023/03/16 03:08:14;;;;;;;6.07;3.27;;;;;;;;;;5067752;28;20060;-83
2023/03/16 03:10:59;;;;;;;6.70;3.70;;;;;;;;;;5076527;28;20041;-83
2023/03/16 03:13:44;;;;;;;8.27;3.77;;;;;;;;;;5053963;28;20047;-83
2023/03/16 03:16:28;;;;;;;5.50;3.47;;;;;;;;;;5053684;28;20051;-84
2023/03/16 03:19:13;;;;;;;9.83;3.57;;;;;;;;;;5082010;28;20040;-83
2023/03/16 03:21:58;;;;;;;10.67;3.60;;;;;;;;;;5054099;28;20074;-83
2023/03/16 03:24:42;;;;;;;6.37;3.23;;;;;;;;;;5081216;28;20106;-84
2023/03/16 03:27:27;;;;;;;9.83;3.43;;;;;;;;;;5045701;28;20133;-84
2023/03/16 03:30:14;;;;;;;7.80;3.47;;;3.70;99.90;;;;;;5054225;28;20100;-85
2023/03/16 03:33:00;;;;;;;10.50;3.40;;;;;;;;;;5053914;28;20047;-84
2023/03/16 03:35:45;;;;;;;7.30;3.37;;;;;;;;;;5081210;28;20135;-84
2023/03/16 03:38:29;;;;;;;7.57;3.73;;;;;;;;;;5052207;28;20036;-84
2023/03/16 03:41:14;;;;;;;9.43;3.50;;;;;;;;;;5038769;28;20052;-84
2023/03/16 03:43:59;;;;;;;7.27;3.60;;;;;;;;;;5040426;28;20056;-83
2023/03/16 03:46:43;;;;;;;9.60;3.80;;;;;;;;;;5052273;28;20106;-84
2023/03/16 03:49:28;;;;;;;6.23;3.07;;;;;;;;;;5053413;28;20484;-85
2023/03/16 03:52:13;;;;;;;6.37;3.33;;;;;;;;;;5066933;28;20102;-84
2023/03/16 03:54:57;;;;;;;11.10;3.53;;;;;;;;;;5077149;28;20508;-84
2023/03/16 03:57:42;;;;;;;6.50;3.23;;;;;;;;;;5053021;28;20047;-84
2023/03/16 04:00:27;;;;;;;6.83;3.53;;;;;;;;;;5049609;28;20052;-85
2023/03/16 04:03:11;;;;;;;6.00;3.30;;;;;;;;;;5052550;28;20090;-84
2023/03/16 04:05:56;;;;;;;4.90;3.07;;;;;;;;;;5066673;28;20036;-84
2023/03/16 04:08:41;;;;;;;6.87;3.47;;;;;;;;;;5053113;28;20497;-85
2023/03/16 04:11:25;;;;;;;8.50;3.60;;;;;;;;;;5066889;28;20123;-84
2023/03/16 04:14:09;;;;;;;8.80;3.37;;;;;;;;;;5051541;28;20261;-84
2023/03/16 04:16:54;;;;;;;4.73;3.47;;;;;;;;;;5074437;28;20052;-84
2023/03/16 04:19:39;;;;;;;9.00;3.60;;;;;;;;;;5052844;28;20036;-84
2023/03/16 04:22:24;;;;;;;9.03;3.50;;;;;;;;;;5080496;28;20099;-84
2023/03/16 04:25:13;;;;;;;7.67;3.53;;;4.10;99.90;;;;;;5080644;28;20433;-84
2023/03/16 04:27:58;;;;;;;6.73;3.10;;;;;;;;;;5068490;28;20039;-84
2023/03/16 04:30:42;;;;;;;5.47;3.37;;;;;;;;;;5052515;28;20122;-85
2023/03/16 04:33:27;;;;;;;8.30;3.70;;;;;;;;;;5053007;28;20083;-84
2023/03/16 04:36:12;;;;;;;7.67;3.30;;;;;;;;;;5080297;28;20116;-84
2023/03/16 04:38:56;;;;;;;8.93;3.30;;;;;;;;;;5051783;28;20106;-84
2023/03/16 04:41:41;;;;;;;8.57;3.80;;;;;;;;;;5065255;28;20043;-84
2023/03/16 04:44:25;;;;;;;7.10;4.60;;;;;;;;;;5080481;28;20119;-84
2023/03/16 04:47:10;;;;;;;6.70;3.37;;;4.30;99.90;;;;;;5052832;28;20032;-84
2023/03/16 04:49:55;;;;;;;7.80;3.93;;;;;;;;;;5065314;28;20036;-84
2023/03/16 04:52:40;;;;;;;7.47;3.57;;;;;;;;;;5079636;28;20535;-84
2023/03/16 04:55:24;;;;;;;7.47;3.47;;;;;;;;;;5052544;28;20039;-84
2023/03/16 04:58:09;;;;;;;8.27;3.73;;;;;;;;;;5052309;28;20090;-84
2023/03/16 05:00:54;;;;;;;8.27;3.50;;;;;;;;;;5052180;28;20087;-85
2023/03/16 05:03:39;;;;;;;6.80;3.43;;;;;;;;;;5064929;28;20044;-84
2023/03/16 05:06:23;;;;;;;7.07;3.73;;;;;;;;;;5051403;28;20417;-84
2023/03/16 05:09:08;;;;;;;8.83;3.37;;;;;;;;;;5065259;28;20048;-84
2023/03/16 05:11:53;;;;;;;5.87;3.47;;;;;;;;;;5051896;28;20056;-84
2023/03/16 05:14:37;;;;;;;7.63;3.40;;;;;;;;;;5051700;28;20060;-85
2023/03/16 05:17:22;;;;;;;10.13;3.80;;;;;;;;;;5051844;28;20056;-83
2023/03/16 05:20:08;;;;;;;8.83;4.50;;;4.40;99.90;;;;;;5051464;28;20040;-84
2023/03/16 05:22:53;;;;;;;10.13;4.27;;;;;;;;;;5051145;28;20400;-84
2023/03/16 05:25:39;;;;;;;8.13;3.67;;;;;;;;;;5064614;28;20044;-85
2023/03/16 05:28:23;;;;;;;6.07;3.67;;;;;;;;;;5079705;28;20039;-83
2023/03/16 05:31:08;;;;;;;6.60;3.60;;;;;;;;;;5079332;28;20122;-84
2023/03/16 05:33:53;;;;;;;7.40;3.50;;;;;;;;;;5050535;28;20093;-84
2023/03/16 05:36:37;;;;;;;6.67;3.97;;;;;;;;;;5079031;28;20082;-86
2023/03/16 05:39:22;;;;;;;9.07;4.20;;;;;;;;;;5051923;28;20507;-85
2023/03/16 05:42:07;;;;;;;9.33;3.87;;;;;;;;;;5051993;28;20036;-84
2023/03/16 05:44:52;;;;;;;6.70;4.20;;;;;;;;;;5078726;28;20051;-84
2023/03/16 05:47:36;;;;;;;5.43;3.40;;;;;;;;;;5079497;28;20124;-83
2023/03/16 05:50:21;;;;;;;6.00;3.80;;;;;;;;;;5050373;28;20040;-84
2023/03/16 05:53:06;;;;;;;8.13;3.80;;;;;;;;;;5078878;28;20086;-84
2023/03/16 05:55:51;;;;;;;6.33;3.83;;;4.40;99.90;;;;;;5078714;28;20086;-83
2023/03/16 05:58:36;;;;;;;6.70;3.57;;;;;;;;;;5042625;28;20051;-84
2023/03/16 06:01:21;;;;;;;13.43;4.13;;;4.40;99.90;;;;;;5057552;28;20064;-84
2023/03/16 06:04:06;;;;;;;7.70;4.30;;;;;;;;;;5050969;28;20043;-84
2023/03/16 06:06:51;;;;;;;6.97;3.63;;;;;;;;;;5051135;28;20112;-84
2023/03/16 06:09:35;;;;;;;8.00;4.30;;;;;;;;;;5062192;28;20078;-84
2023/03/16 06:12:20;;;;;;;5.20;3.57;;;;;;;;;;5067271;28;20047;-84
2023/03/16 06:15:09;;;;;;;7.40;4.30;;;4.50;99.90;;;;;;5059747;28;20035;-84
2023/03/16 06:17:53;;;;;;;8.40;3.83;;;;;;;;;;5049393;28;20072;-84
2023/03/16 06:20:38;;;;;;;7.77;4.10;;;;;;;;;;5053854;28;20094;-84
2023/03/16 06:23:23;;;;;;;10.65;4.22;;;;;;;;;;5065879;28;20086;-86
2023/03/16 06:26:07;;;;;;;8.20;3.93;;;;;;;;;;5047597;28;20036;-85
2023/03/16 06:28:52;;;;;;;7.27;4.03;;;;;;;;;;5051569;28;20607;-84
2023/03/16 06:31:36;;;;;;;7.50;4.10;;;;;;;;;;5048448;28;20095;-83
2023/03/16 06:34:21;;;;;;;8.93;3.80;;;;;;;;;;5067442;28;20529;-84
2023/03/16 06:37:05;;;;;;;7.77;5.00;;;;;;;;;;5049243;28;20665;-84
2023/03/16 06:39:50;;;;;;;11.20;3.60;;;;;;;;;;5069887;28;20048;-83
2023/03/16 06:42:35;;;;;;;7.63;3.63;;;;;;;;;;5055744;28;20044;-84
2023/03/16 06:45:24;;;;;;;11.33;4.10;;;;;;;;;;5057449;28;20504;-84
2023/03/16 06:48:10;;;;;;;7.63;3.80;;;;;;;;;;5063434;28;20043;-85
2023/03/16 06:50:54;;;;;;;9.27;3.97;;;;;;;;;;5084607;28;20108;-84
2023/03/16 06:53:40;;;;;;;10.40;4.27;;;;;;;;;;5061574;28;20095;-83
2023/03/16 06:56:26;;;;;;;7.43;4.27;;;;;;;;;;5055308;28;20431;-84
2023/03/16 06:59:11;;;;;;;10.07;4.10;;;;;;;;;;5086378;28;20123;-83
2023/03/16 07:01:55;;;;;;;5.27;2.93;;;;;;;;;;5057445;28;20108;-83
2023/03/16 07:04:40;;;;;;;6.27;3.73;;;4.60;99.90;;;;;;5049639;28;20405;-83
2023/03/16 07:07:26;;;;;;;8.27;3.77;;;;;;;;;;5052958;28;20044;-84
2023/03/16 07:10:16;;;;;;;6.67;3.77;;;4.70;99.90;;;;;;5053856;28;20047;-83
2023/03/16 07:13:00;;;;;;;7.90;4.27;;;;;;;;;;5049217;28;20044;-84
2023/03/16 07:15:45;;;;;;;5.60;3.30;;;;;;;;;;5055547;28;20094;-83
2023/03/16 07:18:30;;;;;;;7.30;3.67;;;;;;;;;;5057543;28;20132;-83
2023/03/16 07:21:15;;;;;;;5.30;3.67;;;;;;;;;;5057784;28;20062;-84
2023/03/16 07:24:00;;;;;;;6.53;3.80;;;;;;;;;;5058346;28;20043;-84
2023/03/16 07:26:45;;;;;;;8.38;3.63;;;;;;;;;;5058022;28;20040;-84
2023/03/16 07:29:29;;;;;;;8.23;3.77;;;;;;;;;;5063742;28;20040;-85
2023/03/16 07:32:14;;;;;;;6.20;3.30;;;;;;;;;;5065068;28;20144;-85
2023/03/16 07:34:59;;;;;;;7.03;3.75;;;;;;;;;;5041007;28;20083;-85
2023/03/16 07:37:43;;;;;;;6.90;3.60;;;;;;;;;;5054630;28;20505;-85
2023/03/16 07:40:28;;;;;;;6.82;3.80;;;;;;;;;;5062879;28;20495;-85
2023/03/16 07:43:12;;;;;;;7.93;3.97;;;;;;;;;;5053144;28;20036;-86
2023/03/16 07:45:57;;;;;;;7.75;3.67;;;5.00;99.90;;;;;;5044894;28;20546;-86
2023/03/16 07:48:41;;;;;;;7.30;3.63;;;;;;;;;;5051993;28;20059;-84
2023/03/16 07:51:26;;;;;;;7.53;4.00;;;;;;;;;;5053421;28;20068;-87
2023/03/16 07:54:12;;;;;;;6.43;3.72;;;;;;;;;;5052233;28;20126;-86
2023/03/16 07:56:57;;;;;;;7.78;3.22;;;;;;;;;;5051492;28;20032;-89
2023/03/16 07:59:42;;;;;;;5.65;3.50;;;;;;;;;;5059433;28;20476;-85
2023/03/16 08:02:26;;;;;;;10.07;4.05;;;;;;;;;;5052861;28;20035;-85
2023/03/16 08:05:11;;;;;;;6.70;3.50;;;;;;;;;;5079610;28;20107;-85
2023/03/16 08:07:56;;;;;;;6.10;3.47;;;;;;;;;;5051567;28;20095;-87
2023/03/16 08:10:41;;;;;;;10.02;3.60;;;;;;;;;;5051667;28;20063;-85
2023/03/16 08:13:26;;;;;;;6.03;3.85;;;;;;;;;;5079882;28;20106;-85
2023/03/16 08:16:12;;;;;;;8.10;3.60;;;;;;;;;;5051947;28;20071;-85
2023/03/16 08:18:57;;;;;;;7.78;3.72;;;;;;;;;;5052254;28;20044;-87
2023/03/16 08:21:42;;;;;;;5.88;3.20;;;;;;;;;;5052736;28;20606;-85
2023/03/16 08:24:28;;;;;;;6.38;3.53;;;;;;;;;;5079820;28;20531;-85
2023/03/16 08:27:14;;;;;;;6.20;3.90;;;;;;;;;;5079383;28;20043;-85
2023/03/16 08:30:03;;;;;;;9.45;3.83;;;;;;;;;;5079657;28;20500;-87
2023/03/16 08:32:49;;;;;;;6.10;3.75;;;;;;;;;;5086822;28;20504;-85
2023/03/16 08:35:34;;;;;;;8.20;4.05;;;;;;;;;;5042737;28;20524;-85
2023/03/16 08:38:19;;;;;;;8.18;3.70;;;;;;;;;;5050884;28;20032;-85
2023/03/16 08:41:04;;;;;;;6.57;3.60;;;;;;;;;;5050543;28;20067;-85
2023/03/16 08:43:49;;;;;;;8.88;4.35;;;;;;;;;;5040745;28;20131;-84
2023/03/16 08:46:34;;;;;;;10.43;4.25;;;;;;;;;;5051583;28;20031;-85
2023/03/16 08:49:19;;;;;;;9.23;4.60;;;;;;;;;;5043954;28;20040;-85
2023/03/16 08:52:04;;;;;;;6.10;3.85;;;5.00;99.90;;;;;;5062362;28;20066;-84
2023/03/16 08:54:49;;;;;;;8.65;4.10;;;;;;;;;;5079298;28;20119;-84
2023/03/16 08:57:34;;;;;;;6.63;3.75;;;;;;;;;;5047112;28;20048;-85
2023/03/16 09:00:19;;;;;;;6.47;3.50;;;5.40;99.90;;;;;;5064340;28;20401;-85
2023/03/16 09:03:04;;;;;;;8.98;4.18;;;;;;;;;;5055160;28;20059;-86
2023/03/16 09:05:49;;;;;;;7.78;4.38;;;;;;;;;;5049868;28;20397;-85
2023/03/16 09:08:33;;;;;;;8.23;4.90;;;;;;;;;;5056162;28;20052;-84
2023/03/16 09:11:18;;;;;;;5.88;4.03;;;5.20;99.90;;;;;;5045986;28;20036;-84
2023/03/16 09:14:03;;;;;;;10.45;5.07;;;;;;;;;;5054847;28;20040;-85
2023/03/16 09:16:48;;;;;;;9.90;5.40;;;;;;;;;;5056452;28;20060;-85
2023/03/16 09:19:33;;;;;;;9.75;4.38;;;;;;;;;;5050303;28;20067;-84
2023/03/16 09:22:19;;;;;;;9.75;4.85;;;5.30;99.90;;;;;;5051040;28;20051;-84
2023/03/16 09:25:05;;;;;;;11.40;5.43;;;5.20;99.90;;;;;;5039402;28;20798;-84
2023/03/16 09:27:51;;;;;;;11.40;4.88;;;;;;;;;;5053486;28;20031;-84
2023/03/16 09:30:36;;;;;;;7.45;4.72;;;;;;;;;;5053135;28;20044;-83
2023/03/16 09:33:21;;;;;;;12.32;5.53;;;;;;;;;;5045621;28;20098;-84
2023/03/16 09:36:06;;;;;;;8.02;4.68;;;;;;;;;;5053022;28;20040;-85
2023/03/16 09:38:51;;;;;;;6.43;3.80;;;;;;;;;;5050541;28;20441;-85
2023/03/16 09:41:54;;;;;;;8.82;4.72;;;5.50;99.90;;;;;;5045866;28;20119;-84
2023/03/16 09:44:39;;;;;;;12.77;5.13;;;;;;;;;;5058325;28;20645;-84
2023/03/16 09:47:27;;;;;;;9.50;4.88;;;5.70;99.90;;;;;;5058038;28;20421;-83
2023/03/16 09:50:27;;;;;;;8.05;5.00;;;5.70;99.90;;;;;;5048875;28;20048;-85
2023/03/16 09:53:33;;;;;;;8.00;5.03;;;5.70;99.90;;;;;;5046895;28;20055;-85
2023/03/16 09:56:28;;;;;;;9.32;4.97;;;5.90;99.90;;;;;;5049161;28;20503;-85
2023/03/16 09:59:16;;;;;;;8.20;4.65;;;5.90;99.90;;;;;;5052008;28;20044;-84
2023/03/16 10:02:45;;;;;;;9.98;5.10;;;5.90;99.90;;;;;;5050285;28;20094;-83
2023/03/16 10:05:31;;;;;;;10.35;5.57;;;6.00;99.90;;;;;;5049730;28;20036;-84
2023/03/16 10:08:25;;;;;;;9.93;5.60;;;6.00;99.90;;;;;;5077369;28;20132;-84
2023/03/16 10:11:38;;;;;;;9.20;4.90;;;6.00;99.90;;;;;;5050462;28;20591;-84
2023/03/16 10:14:44;;;;;;;11.73;4.97;;;6.00;99.90;;;;;;5053783;28;20040;-83
2023/03/16 10:17:38;;;;;;;11.32;6.22;;;6.00;99.90;;;;;;5081024;28;20056;-85
2023/03/16 10:20:23;;;;;;;10.23;5.75;;;6.00;99.90;;;;;;5081458;28;20082;-84
2023/03/16 10:23:21;;;;;;;9.88;5.32;;;5.60;99.90;;;;;;5053378;28;20413;-83
2023/03/16 10:26:13;;;;;;;8.32;5.05;;;6.10;99.90;;;;;;5081571;28;20036;-86
2023/03/16 10:28:59;;;;;;;9.13;4.75;;;;;;;;;;5082048;28;20040;-83
2023/03/16 10:31:44;;;;;;;9.43;4.88;;;;;;;;;;5081797;28;20044;-83
2023/03/16 10:34:29;;;;;;;8.55;4.82;;;6.30;99.90;;;;;;5053977;28;20056;-85
2023/03/16 10:37:14;;;;;;;8.45;4.05;;;;;;;;;;5054505;28;20439;-84
2023/03/16 10:39:59;;;;;;;7.88;4.55;;;;;;;;;;5053282;28;20087;-85
2023/03/16 10:42:45;;;;;;;8.50;4.38;;;;;;;;;;5054563;28;20039;-84
2023/03/16 10:45:33;;;;;;;8.95;4.88;;;6.30;99.90;;;;;;5072190;28;20086;-86
2023/03/16 10:48:20;;;;;;;7.57;4.05;;;6.40;99.90;;;;;;5065332;28;20400;-85
2023/03/16 10:51:12;;;;;;;7.72;4.35;;;6.50;99.90;;;;;;5053383;28;20031;-84
2023/03/16 10:54:15;;;;;;;6.43;4.60;;;6.40;99.90;;;;;;5063258;28;20550;-83
2023/03/16 10:57:12;;;;;;;7.20;4.43;;;6.40;99.90;;;;;;5067141;28;20047;-84
2023/03/16 11:00:14;;;;;;;7.47;4.30;;;6.40;99.90;;;;;;5069680;28;20040;-86
2023/03/16 11:03:00;;;;;;;9.02;4.10;;;;;;;;;;5059617;28;20051;-84
2023/03/16 11:05:44;;;;;;;6.55;4.07;;;;;;;;;;5049477;28;20702;-85
2023/03/16 11:08:34;;;;;;;9.48;4.07;;;6.50;99.90;;;;;;5067315;28;20409;-85
2023/03/16 11:11:28;;;;;;;10.60;4.00;;;6.60;99.90;;;;;;5046374;28;20444;-87
2023/03/16 11:14:14;;;;;;;10.30;5.72;;;6.60;99.90;;;;;;5055948;28;20107;-84
2023/03/16 11:17:04;;;;;;;5.35;3.72;;;6.60;99.90;;;;;;5058612;28;20056;-85
2023/03/16 11:19:56;;;;;;;5.68;4.10;;;6.70;99.90;;;;;;5055292;28;20524;-85
2023/03/16 11:22:44;;;;;;;8.73;4.38;;;6.80;99.90;;;;;;5062213;28;20483;-88
2023/03/16 11:25:29;;;;;;;9.60;4.32;;;;;;;;;;5060497;28;20040;-87
2023/03/16 11:28:26;;;;;;;6.45;3.80;;;6.80;99.90;;;;;;5056479;28;20055;-88
2023/03/16 11:31:11;;;;;;;5.93;3.58;;;;;;;;;;5054183;28;20048;-88
2023/03/16 11:33:56;;;;;;;8.25;4.07;;;;;;;;;;5055005;28;20056;-86
2023/03/16 11:36:54;;;;;;;5.88;3.70;;;6.90;99.90;;;;;;5058991;28;20496;-85
2023/03/16 11:39:57;;;;;;;9.90;4.40;;;6.90;99.90;;;;;;5064165;28;20063;-85
2023/03/16 11:43:15;;;;;;;8.32;4.22;;;7.10;99.90;;;;;;5052713;28;20065;-84
2023/03/16 11:46:21;;;;;;;9.18;3.60;;;7.10;99.90;;;;;;5058453;28;20718;-84
2023/03/16 11:49:37;;;;;;;10.98;3.85;;;7.20;99.90;;;;;;5054094;28;20098;-85
2023/03/16 11:52:56;;;;;;;6.80;3.65;;;7.30;99.90;;;;;;5050024;28;20095;-85
2023/03/16 11:56:07;;;;;;;6.05;3.60;;;7.20;99.90;;;;;;5050128;28;20389;-85
2023/03/16 11:58:52;;;;;;;6.57;3.65;;;;;;;;;;5061890;28;20082;-85
2023/03/16 12:02:00;;;;;;;9.02;3.70;;;7.50;99.90;;;;;;5058333;28;20047;-85
2023/03/16 12:05:18;;;;;;;5.25;3.42;;;7.50;99.90;;;;;;5055379;28;20095;-85
2023/03/16 12:08:06;;;;;;;6.65;3.15;;;7.60;99.90;;;;;;5059616;28;20088;-85
2023/03/16 12:11:29;;;;;;;7.40;4.00;;;7.90;99.90;;;;;;5048225;28;20091;-84
2023/03/16 12:14:36;;;;;;;7.35;3.58;;;7.90;99.90;;;;;;5049237;28;20044;-85
2023/03/16 12:17:26;;;;;;;5.75;3.42;;;8.00;99.90;;;;;;5046429;28;20110;-86
2023/03/16 12:20:22;;;;;;;8.48;3.58;;;8.10;99.90;;;;;;5050679;28;20083;-86
2023/03/16 12:23:13;;;;;;;8.88;3.40;;;8.20;99.90;;;;;;5049464;28;20392;-87
2023/03/16 12:25:58;;;;;;;8.55;3.13;;;;;;;;;;5050834;28;20393;-86
2023/03/16 12:28:43;;;;;;;8.93;3.72;;;;;;;;;;5051147;28;20040;-85
2023/03/16 12:31:54;;;;;;;7.15;3.47;;;8.30;99.90;;;;;;5051511;28;20075;-87
2023/03/16 12:34:50;;;;;;;6.88;3.40;;;8.40;99.90;;;;;;5047877;28;20503;-85
2023/03/16 12:37:57;;;;;;;8.82;3.65;;;8.50;99.90;;;;;;5044580;28;20040;-90
2023/03/16 12:41:00;;;;;;;6.90;3.47;;;8.30;99.90;;;;;;5063152;28;20089;-87
2023/03/16 12:43:56;;;;;;;5.00;3.17;;;8.80;99.90;;;;;;5056521;28;20044;-86
2023/03/16 12:46:40;;;;;;;6.75;3.40;;;;;;;;;;5061035;28;20522;-86
2023/03/16 12:49:27;;;;;;;7.07;3.92;;;8.80;99.90;;;;;;5068256;28;20503;-87
2023/03/16 12:52:13;;;;;;;7.47;3.67;;;8.90;99.90;;;;;;5045672;28;20086;-86
2023/03/16 12:55:12;;;;;;;5.90;3.60;;;8.90;99.90;;;;;;5054514;28;20533;-86
2023/03/16 12:58:07;;;;;;;5.53;3.22;;;8.80;99.90;;;;;;5059328;28;20055;-86
2023/03/16 13:00:58;;;;;;;7.00;3.28;;;8.80;99.90;;;;;;5039788;28;20163;-86
2023/03/16 13:03:45;;;;;;;9.98;3.83;;;8.80;99.90;;;;;;5049345;28;20063;-86
2023/03/16 13:06:34;;;;;;;8.45;3.60;;;8.80;99.90;;;;;;5051235;28;20040;-86
2023/03/16 13:09:26;;;;;;;6.20;3.22;;;8.80;99.90;;;;;;5050622;28;20070;-86
2023/03/16 13:12:31;;;;;;;9.27;3.47;;;8.80;99.90;;;;;;5058161;28;20585;-86
2023/03/16 13:15:20;;;;;;;8.77;3.83;;;8.80;99.90;;;;;;5053868;28;20039;-86
2023/03/16 13:18:05;;;;;;;6.88;3.30;;;;;;;;;;5044759;28;20057;-86
2023/03/16 13:21:00;;;;;;;6.50;3.88;;;8.90;99.90;;;;;;5044748;28;20123;-87
2023/03/16 13:23:53;;;;;;;6.22;3.80;;;8.90;99.90;;;;;;5061882;28;20044;-86
2023/03/16 13:26:45;;;;;;;7.15;3.20;;;8.90;99.90;;;;;;5052618;28;20036;-87
2023/03/16 13:29:31;;;;;;;7.68;3.42;;;9.00;99.90;;;;;;5063409;28;20448;-86
2023/03/16 13:32:18;;;;;;;7.75;3.40;;;8.40;99.90;;;;;;5041220;28;20416;-86
2023/03/16 13:35:12;;;;;;;7.25;3.50;;;9.10;99.90;;;;;;5049809;28;20036;-88
2023/03/16 13:38:04;;;;;;;5.60;3.35;;;9.20;99.90;;;;;;5062434;28;20050;-86
2023/03/16 13:40:52;;;;;;;5.30;3.50;;;9.40;99.90;;;;;;5055455;28;20039;-87
2023/03/16 13:43:42;;;;;;;7.75;3.38;;;9.60;99.90;;;;;;5037122;28;20195;-87
2023/03/16 13:46:29;;;;;;;5.45;3.33;;;9.80;99.90;;;;;;5052054;28;20034;-87
2023/03/16 13:49:14;;;;;;;6.13;3.40;;;;;;;;;;5054062;28;20408;-87
2023/03/16 13:51:58;;;;;;;7.60;3.20;;;;;;;;;;5040967;28;20067;-84
2023/03/16 13:54:43;;;;;;;10.20;3.38;;;;;;;;;;5053843;28;20114;-87
2023/03/16 13:57:30;;;;;;;5.55;2.90;;;9.90;99.90;;;;;;5050512;28;20086;-85
2023/03/16 14:00:23;;;;;;;7.30;3.03;;;10.00;99.90;;;;;;5050313;28;20123;-85
2023/03/16 14:03:15;;;;;;;7.28;3.80;;;10.10;99.90;;;;;;5049204;28;20052;-85
2023/03/16 14:06:00;;;;;;;5.75;3.50;;;;;;;;;;5048933;28;20067;-86
2023/03/16 14:08:49;;;;;;;7.65;3.65;;;10.50;99.90;;;;;;5077128;28;20071;-86
2023/03/16 14:11:34;;;;;;;9.85;3.92;;;;;;;;;;5039857;28;20040;-87
2023/03/16 14:14:29;;;;;;;7.13;3.80;;;10.40;99.90;;;;;;5050280;28;20496;-86
2023/03/16 14:17:18;;;;;;;6.78;3.83;;;10.40;99.90;;;;;;5050415;28;20071;-87
2023/03/16 14:20:04;;;;;;;7.47;3.22;;;;;;;;;;5037760;28;20443;-86
2023/03/16 14:22:51;;;;;;;7.45;3.03;;;10.30;99.90;;;;;;5048717;28;20566;-85
2023/03/16 14:25:36;;;;;;;6.50;3.13;;;;;;;;;;5069863;28;20079;-86
2023/03/16 14:28:29;;;;;;;8.32;3.45;;;10.20;99.90;;;;;;5049194;28;20501;-85
2023/03/16 14:31:19;;;;;;;6.53;2.65;;;10.20;99.90;;;;;;5050047;28;20044;-86
2023/03/16 14:34:20;;;;;;;6.20;3.30;;;10.20;99.90;;;;;;5050196;28;20083;-88
2023/03/16 14:37:17;;;;;;;4.82;2.90;;;10.10;99.90;;;;;;5047964;28;20036;-85
2023/03/16 14:40:06;;;;;;;5.93;3.10;;;10.20;99.90;;;;;;5048515;28;20167;-87
2023/03/16 14:42:52;;;;;;;6.00;3.20;;;10.20;99.90;;;;;;5048590;28;20103;-86
2023/03/16 14:45:37;;;;;;;9.52;4.22;;;;;;;;;;5052244;28;20091;-84
2023/03/16 14:48:21;;;;;;;7.82;3.50;;;;;;;;;;5056867;28;20063;-87
2023/03/16 14:51:12;;;;;;;5.10;3.10;;;10.20;99.90;;;;;;5049536;28;20118;-85
2023/03/16 14:53:56;;;;;;;8.13;4.00;;;;;;;;;;5043188;28;20043;-87
2023/03/16 14:56:41;;;;;;;5.13;3.00;;;;;;;;;;5049988;28;20110;-85
2023/03/16 14:59:26;;;;;;;6.30;3.40;;;;;;;;;;5056483;28;20087;-86
2023/03/16 15:02:21;;;;;;;6.53;3.40;;;10.40;99.90;;;;;;5053273;28;20094;-86
2023/03/16 15:05:08;;;;;;;8.75;3.28;;;10.30;99.90;;;;;;5050910;28;20055;-85
2023/03/16 15:07:54;;;;;;;9.20;3.75;;;10.30;99.90;;;;;;5039212;28;20044;-87
2023/03/16 15:10:39;;;;;;;5.07;2.88;;;;;;;;;;5051729;28;20090;-86
2023/03/16 15:16:23;;;;;;;6.88;3.08;;;;;;;;;;5059442;28;20158;-86
2023/03/16 15:19:08;;;;;;;7.85;3.45;;;;;;;;;;5053513;28;20048;-86
2023/03/16 15:21:53;;;;;;;5.50;2.85;;;;;;;;;;5052700;28;20075;-87
2023/03/16 15:24:38;;;;;;;5.43;2.92;;;;;;;;;;5079414;28;20044;-86
2023/03/16 15:27:26;;;;;;;5.53;3.22;;;10.30;99.90;;;;;;5063661;28;20118;-86
2023/03/16 15:30:27;;;;;;;5.18;3.13;;;10.40;99.90;;;;;;5052898;28;20155;-86
2023/03/16 15:33:12;;;;;;;6.38;2.90;;;;;;;;;;5052151;28;20059;-86
2023/03/16 15:36:00;;;;;;;6.78;3.17;;;10.30;99.90;;;;;;5051726;28;20083;-87
2023/03/16 15:38:50;;;;;;;6.03;3.35;;;9.70;99.90;;;;;;5045040;28;20068;-86
2023/03/16 15:41:35;;;;;;;5.15;3.22;;;;;;;;;;5050477;28;20039;-85
2023/03/16 15:44:20;;;;;;;5.75;3.28;;;;;;;;;;5052608;28;20044;-86
2023/03/16 15:47:04;;;;;;;5.25;3.30;;;;;;;;;;5052778;28;20120;-86
2023/03/16 15:49:49;;;;;;;4.80;2.55;;;;;;;;;;5053228;28;20044;-85
2023/03/16 15:52:36;;;;;;;6.55;3.00;;;10.20;99.90;;;;;;5063272;28;20043;-86
2023/03/16 15:55:31;;;;;;;5.55;2.90;;;10.40;99.90;;;;;;5078740;28;20397;-85
2023/03/16 15:58:20;;;;;;;6.68;2.83;;;10.10;99.90;;;;;;5052202;28;20047;-86